Time;durP1;ratioP1;P1;durP2;ratioP2;P2;SDS_P1;SDS_P2;PMS_P1;PMS_P2;Temp;Humidity;BMP_temperature;BMP_pressure;BME280_temperature;BME280_humidity;BME280_pressure;Samples;Min_cycle;Max_cycle;Signal;HPM_P1;HPM_P2
2022/11/30 00:01:51;;;;;;;27.55;19.13;;;;;;;;;;5010334;28;20275;-64
2022/11/30 00:04:16;;;;;;;25.73;17.65;;;;;;;;;;5010377;28;20232;-64
2022/11/30 00:06:41;;;;;;;25.48;17.77;;;;;;;;;;5009875;28;20235;-64
2022/11/30 00:09:06;;;;;;;19.38;12.55;;;;;;;;;;5010266;28;20511;-64
2022/11/30 00:11:32;;;;;;;27.15;18.20;;;;;;;;;;5010625;28;20258;-64
2022/11/30 00:13:58;;;;;;;22.90;16.55;;;;;;;;;;4999405;28;20730;-65
2022/11/30 00:16:23;;;;;;;23.92;16.63;;;;;;;;;;4990233;28;20227;-64
2022/11/30 00:18:48;;;;;;;22.30;16.70;;;;;;;;;;4991006;28;20213;-65
2022/11/30 00:21:14;;;;;;;21.95;14.88;;;;;;;;;;4989898;28;20711;-64
2022/11/30 00:23:39;;;;;;;21.77;16.20;;;;;;;;;;4990893;28;20213;-64
2022/11/30 00:26:05;;;;;;;20.17;15.63;;;;;;;;;;4988467;28;20591;-64
2022/11/30 00:28:31;;;;;;;22.35;17.15;;;;;;;;;;4989749;28;20217;-64
2022/11/30 00:31:00;;;;;;;23.25;16.60;;;;;;;;;;4990556;28;20216;-64
2022/11/30 00:33:26;;;;;;;24.05;16.75;;;;;;;;;;4989858;28;20221;-64
2022/11/30 00:35:56;;;;;;;21.63;16.05;;;;;;;;;;4990861;28;20739;-65
2022/11/30 00:38:21;;;;;;;22.65;17.23;;;;;;;;;;4990480;28;20565;-64
2022/11/30 00:40:46;;;;;;;23.70;16.48;;;;;;;;;;4990145;28;20216;-64
2022/11/30 00:43:12;;;;;;;21.83;16.10;;;;;;;;;;4990202;28;20224;-64
2022/11/30 00:45:37;;;;;;;19.85;14.20;;;;;;;;;;4992677;28;20352;-64
2022/11/30 00:48:02;;;;;;;23.08;16.25;;;;;;;;;;4993506;28;20594;-64
2022/11/30 00:50:27;;;;;;;20.88;15.95;;;;;;;;;;4994580;28;20213;-64
2022/11/30 00:52:53;;;;;;;25.10;16.65;;;;;;;;;;4994480;28;20209;-64
2022/11/30 00:55:18;;;;;;;21.30;14.82;;;;;;;;;;4993289;28;20248;-64
2022/11/30 00:57:43;;;;;;;22.10;15.32;;;;;;;;;;5001871;28;20564;-64
2022/11/30 01:00:09;;;;;;;20.52;15.35;;;;;;;;;;4997901;28;20256;-64
2022/11/30 01:02:34;;;;;;;20.92;14.95;;;;;;;;;;4993286;28;20252;-64
2022/11/30 01:04:59;;;;;;;21.02;15.35;;;;;;;;;;4994237;28;20241;-64
2022/11/30 01:07:24;;;;;;;20.88;15.27;;;;;;;;;;4993891;28;20229;-64
2022/11/30 01:09:50;;;;;;;24.65;15.85;;;;;;;;;;4993553;28;20217;-64
2022/11/30 01:12:15;;;;;;;20.67;15.55;;;;;;;;;;4993752;28;20217;-64
2022/11/30 01:14:40;;;;;;;16.60;12.85;;;;;;;;;;4993954;28;20673;-64
2022/11/30 01:17:05;;;;;;;20.17;14.52;;;;;;;;;;5011840;28;20208;-64
2022/11/30 01:19:31;;;;;;;24.88;15.60;;;;;;;;;;5013756;28;20220;-64
2022/11/30 01:21:56;;;;;;;22.45;14.85;;;;;;;;;;5013579;28;20208;-64
2022/11/30 01:24:21;;;;;;;21.88;15.95;;;;;;;;;;5012646;28;20750;-64
2022/11/30 01:26:46;;;;;;;19.17;12.75;;;;;;;;;;5013476;28;20240;-64
2022/11/30 01:29:12;;;;;;;20.88;14.68;;;;;;;;;;5012998;28;20212;-64
2022/11/30 01:31:37;;;;;;;21.60;15.45;;;;;;;;;;5012349;28;20213;-65
2022/11/30 01:34:02;;;;;;;21.38;14.52;;;;;;;;;;5013074;28;20262;-64
2022/11/30 01:36:27;;;;;;;22.33;15.88;;;;;;;;;;5012617;28;20200;-64
2022/11/30 01:38:54;;;;;;;19.80;14.13;;;;;;;;;;5013252;28;20552;-64
2022/11/30 01:41:22;;;;;;;21.77;14.93;;;;;;;;;;5012777;28;20200;-64
2022/11/30 01:43:50;;;;;;;21.42;15.95;;;;;;;;;;5012703;28;20243;-64
2022/11/30 01:46:17;;;;;;;19.38;14.25;;;;;;;;;;5012707;28;20729;-64
2022/11/30 01:48:43;;;;;;;23.83;16.00;;;;;;;;;;5012922;28;20209;-64
2022/11/30 01:51:08;;;;;;;21.88;14.75;;;;;;;;;;5013951;28;20570;-64
2022/11/30 01:53:34;;;;;;;23.38;16.20;;;;;;;;;;5015156;28;20255;-64
2022/11/30 01:55:59;;;;;;;20.15;13.98;;;;;;;;;;5014365;28;20224;-64
2022/11/30 01:58:24;;;;;;;23.38;16.15;;;;;;;;;;4993566;28;20217;-64
2022/11/30 02:00:50;;;;;;;21.00;15.15;;;;;;;;;;5004548;28;20703;-64
2022/11/30 02:03:18;;;;;;;23.35;16.05;;;;;;;;;;5004884;28;20216;-64
2022/11/30 02:05:44;;;;;;;23.15;15.82;;;;;;;;;;5004712;28;20605;-64
2022/11/30 02:08:09;;;;;;;22.80;15.20;;;;;;;;;;5005168;28;20211;-64
2022/11/30 02:10:35;;;;;;;20.90;15.40;;;;;;;;;;5014905;28;20259;-64
2022/11/30 02:13:20;;;;;;;21.63;15.05;;;;;;;;;;5010940;28;20232;-64
2022/11/30 02:15:56;;;;;;;22.23;15.68;;;;;;;;;;4994849;28;20217;-65
2022/11/30 02:18:24;;;;;;;20.60;14.70;;;;;;;;;;4993342;28;20299;-64
2022/11/30 02:20:58;;;;;;;21.77;14.57;;;;;;;;;;4993163;28;20205;-64
2022/11/30 02:23:27;;;;;;;18.98;13.43;;;;;;;;;;4993424;28;20239;-64
2022/11/30 02:26:04;;;;;;;19.83;14.02;;;;;;;;;;4993148;28;20213;-64
2022/11/30 02:28:50;;;;;;;23.17;15.55;;;;;;;;;;4985602;28;20213;-64
2022/11/30 02:31:17;;;;;;;23.90;15.68;;;;;;;;;;4985192;28;20312;-64
2022/11/30 02:33:43;;;;;;;22.85;14.50;;;;;;;;;;4993695;28;20213;-64
2022/11/30 02:36:08;;;;;;;19.52;14.48;;;;;;;;;;4985005;28;20747;-64
2022/11/30 02:38:33;;;;;;;19.55;15.18;;;;;;;;;;4994764;28;20221;-65
2022/11/30 02:40:59;;;;;;;23.83;15.35;;;;;;;;;;4994063;28;20213;-64
2022/11/30 02:43:25;;;;;;;21.63;14.45;;;;;;;;;;4994051;28;20617;-64
2022/11/30 02:46:08;;;;;;;18.58;12.93;;;;;;;;;;4994644;28;20217;-65
2022/11/30 02:48:39;;;;;;;19.13;14.40;;;;;;;;;;4993242;28;20251;-64
2022/11/30 02:51:04;;;;;;;23.35;15.15;;;;;;;;;;4984941;28;20684;-64
2022/11/30 02:53:29;;;;;;;21.55;15.25;;;;;;;;;;4994625;28;20212;-64
2022/11/30 02:55:54;;;;;;;23.48;15.23;;;;;;;;;;4993784;28;20217;-65
2022/11/30 02:58:20;;;;;;;21.60;15.27;;;;;;;;;;5002788;28;20216;-64
2022/11/30 03:00:46;;;;;;;21.73;14.63;;;;;;;;;;4993489;28;20573;-64
2022/11/30 03:03:11;;;;;;;18.75;12.95;;;;;;;;;;4993682;28;20296;-64
2022/11/30 03:05:36;;;;;;;21.98;14.13;;;;;;;;;;4994006;28;20241;-64
2022/11/30 03:08:02;;;;;;;20.73;14.73;;;;;;;;;;4992019;28;20593;-64
2022/11/30 03:10:27;;;;;;;22.17;14.85;;;;;;;;;;4994090;28;20212;-64
2022/11/30 03:12:55;;;;;;;20.67;14.25;;;;;;;;;;4994189;28;20217;-64
2022/11/30 03:15:21;;;;;;;21.08;14.48;;;;;;;;;;4996438;28;20303;-64
2022/11/30 03:17:46;;;;;;;18.75;13.18;;;;;;;;;;5011418;28;20363;-64
2022/11/30 03:20:11;;;;;;;18.08;12.65;;;;;;;;;;5010693;28;20304;-64
2022/11/30 03:22:36;;;;;;;19.77;13.15;;;;;;;;;;5010751;28;20232;-64
2022/11/30 03:25:02;;;;;;;18.88;14.05;;;;;;;;;;5011121;28;20216;-64
2022/11/30 03:27:27;;;;;;;19.25;13.20;;;;;;;;;;5011274;28;20216;-64
2022/11/30 03:29:52;;;;;;;18.85;12.55;;;;;;;;;;5010665;28;20358;-64
2022/11/30 03:32:18;;;;;;;19.95;13.35;;;;;;;;;;5010688;28;20208;-64
2022/11/30 03:34:43;;;;;;;18.48;12.85;;;;;;;;;;5011122;28;20707;-64
2022/11/30 03:37:08;;;;;;;20.25;14.32;;;;;;;;;;5010076;28;20577;-64
2022/11/30 03:39:33;;;;;;;22.08;14.05;;;;;;;;;;5011006;28;20220;-64
2022/11/30 03:41:59;;;;;;;21.70;13.43;;;;;;;;;;4995749;28;20228;-64
2022/11/30 03:44:24;;;;;;;18.02;12.73;;;;;;;;;;4990183;28;20223;-64
2022/11/30 03:46:49;;;;;;;21.77;14.23;;;;;;;;;;4991200;28;20709;-64
2022/11/30 03:49:14;;;;;;;19.92;13.32;;;;;;;;;;4990890;28;20217;-64
2022/11/30 03:51:40;;;;;;;18.58;12.32;;;;;;;;;;4990409;28;20300;-64
2022/11/30 03:54:05;;;;;;;19.85;13.45;;;;;;;;;;4990842;28;20224;-64
2022/11/30 03:56:30;;;;;;;19.52;12.55;;;;;;;;;;4994687;28;20307;-64
2022/11/30 03:58:55;;;;;;;20.17;12.98;;;;;;;;;;5006589;28;20574;-64
2022/11/30 04:01:22;;;;;;;18.30;12.45;;;;;;;;;;4990596;28;20231;-64
2022/11/30 04:03:47;;;;;;;19.70;13.25;;;;;;;;;;4991184;28;20295;-64
2022/11/30 04:06:13;;;;;;;19.52;13.00;;;;;;;;;;4989614;28;20304;-64
2022/11/30 04:08:38;;;;;;;21.65;13.68;;;;;;;;;;4991016;28;20209;-64
2022/11/30 04:11:03;;;;;;;19.98;12.35;;;;;;;;;;4990150;28;20682;-64
2022/11/30 04:13:29;;;;;;;22.33;13.00;;;;;;;;;;4990963;28;20209;-64
2022/11/30 04:15:54;;;;;;;18.08;11.93;;;;;;;;;;5000402;28;20216;-64
2022/11/30 04:18:20;;;;;;;19.05;12.68;;;;;;;;;;5009441;28;20219;-64
2022/11/30 04:20:45;;;;;;;16.13;10.25;;;;;;;;;;5010066;28;20675;-64
2022/11/30 04:23:10;;;;;;;19.08;11.98;;;;;;;;;;5010070;28;20212;-64
2022/11/30 04:25:36;;;;;;;17.77;11.57;;;;;;;;;;5009703;28;20212;-64
2022/11/30 04:28:01;;;;;;;21.13;12.98;;;;;;;;;;5010100;28;20286;-64
2022/11/30 04:30:27;;;;;;;16.00;11.07;;;;;;;;;;5010228;28;20674;-64
2022/11/30 04:32:52;;;;;;;19.02;12.38;;;;;;;;;;5009610;28;20266;-64
2022/11/30 04:35:17;;;;;;;18.88;12.02;;;;;;;;;;5010011;28;20236;-64
2022/11/30 04:37:43;;;;;;;21.67;13.27;;;;;;;;;;5010238;28;20211;-64
2022/11/30 04:40:08;;;;;;;18.95;12.73;;;;;;;;;;5009313;28;20555;-64
2022/11/30 04:42:33;;;;;;;19.88;13.65;;;;;;;;;;5010620;28;20628;-64
2022/11/30 04:44:59;;;;;;;20.67;13.18;;;;;;;;;;5010378;28;20626;-64
2022/11/30 04:47:24;;;;;;;20.17;12.55;;;;;;;;;;5008964;28;20220;-64
2022/11/30 04:49:50;;;;;;;19.83;13.40;;;;;;;;;;5010356;28;20574;-64
2022/11/30 04:52:15;;;;;;;17.60;11.25;;;;;;;;;;5009505;28;20212;-64
2022/11/30 04:54:40;;;;;;;18.88;13.10;;;;;;;;;;5009585;28;20212;-64
2022/11/30 04:57:05;;;;;;;23.38;13.77;;;;;;;;;;5001846;28;20217;-64
2022/11/30 04:59:31;;;;;;;20.73;13.30;;;;;;;;;;4998663;28;20212;-64
2022/11/30 05:01:56;;;;;;;18.10;12.50;;;;;;;;;;5009153;28;20660;-64
2022/11/30 05:04:21;;;;;;;21.45;13.13;;;;;;;;;;5009729;28;20659;-64
2022/11/30 05:06:47;;;;;;;20.25;13.23;;;;;;;;;;5009763;28;20255;-64
2022/11/30 05:09:12;;;;;;;18.77;13.30;;;;;;;;;;5009094;28;20699;-64
2022/11/30 05:11:37;;;;;;;19.35;12.30;;;;;;;;;;5010078;28;20683;-64
2022/11/30 05:14:03;;;;;;;17.23;11.73;;;;;;;;;;4998590;28;20213;-64
2022/11/30 05:16:28;;;;;;;19.85;13.77;;;;;;;;;;4989689;28;20681;-64
2022/11/30 05:18:53;;;;;;;23.08;13.52;;;;;;;;;;4990626;28;20288;-64
2022/11/30 05:21:18;;;;;;;19.83;12.85;;;;;;;;;;4990178;28;20213;-64
2022/11/30 05:23:45;;;;;;;20.80;13.00;;;;;;;;;;4989795;28;20621;-64
2022/11/30 05:26:11;;;;;;;20.80;14.13;;;;;;;;;;4989755;28;20563;-64
2022/11/30 05:28:36;;;;;;;20.25;13.13;;;;;;;;;;4989828;28;20706;-64
2022/11/30 05:31:02;;;;;;;22.83;13.73;;;;;;;;;;4989976;28;20673;-64
2022/11/30 05:33:27;;;;;;;21.05;14.15;;;;;;;;;;4993443;28;20205;-65
2022/11/30 05:35:52;;;;;;;19.77;12.30;;;;;;;;;;4993170;28;20216;-64
2022/11/30 05:38:18;;;;;;;18.30;11.82;;;;;;;;;;4993051;28;20297;-64
2022/11/30 05:40:43;;;;;;;21.17;13.57;;;;;;;;;;4993806;28;20224;-64
2022/11/30 05:43:08;;;;;;;17.58;12.32;;;;;;;;;;5003743;28;20224;-64
2022/11/30 05:45:33;;;;;;;17.88;12.18;;;;;;;;;;5011864;28;20216;-64
2022/11/30 05:47:59;;;;;;;20.23;13.80;;;;;;;;;;5013235;28;20228;-64
2022/11/30 05:50:24;;;;;;;18.42;12.60;;;;;;;;;;5011784;28;20213;-64
2022/11/30 05:52:51;;;;;;;19.98;13.48;;;;;;;;;;5012835;28;20619;-64
2022/11/30 05:55:16;;;;;;;21.00;14.13;;;;;;;;;;4989490;28;20873;-63
2022/11/30 05:57:41;;;;;;;22.88;14.02;;;;;;;;;;4983258;28;20213;-66
2022/11/30 06:00:07;;;;;;;24.08;14.68;;;;;;;;;;4985870;28;20227;-65
2022/11/30 06:02:32;;;;;;;23.95;15.77;;;;;;;;;;4994937;28;21249;-65
2022/11/30 06:04:58;;;;;;;27.07;15.73;;;;;;;;;;4975875;28;20792;-65
2022/11/30 06:07:23;;;;;;;23.33;15.00;;;;;;;;;;4975672;28;20267;-65
2022/11/30 06:09:48;;;;;;;24.80;15.40;;;;;;;;;;4981275;28;20224;-65
2022/11/30 06:12:13;;;;;;;27.67;16.67;;;;;;;;;;4982584;28;20221;-65
2022/11/30 06:14:39;;;;;;;24.43;15.57;;;;;;;;;;4984111;28;20241;-66
2022/11/30 06:17:04;;;;;;;25.33;16.42;;;;;;;;;;4983821;28;21051;-65
2022/11/30 06:19:29;;;;;;;25.33;16.30;;;;;;;;;;4983244;28;20691;-66
2022/11/30 06:21:55;;;;;;;24.95;15.07;;;;;;;;;;4983327;28;20226;-66
2022/11/30 06:24:20;;;;;;;25.90;16.50;;;;;;;;;;4980496;28;20664;-65
2022/11/30 06:26:45;;;;;;;27.80;17.50;;;;;;;;;;4976180;28;20225;-65
2022/11/30 06:29:10;;;;;;;27.20;16.33;;;;;;;;;;4980805;28;20209;-65
2022/11/30 06:31:36;;;;;;;26.27;16.70;;;;;;;;;;4978160;28;20585;-66
2022/11/30 06:34:01;;;;;;;28.60;17.55;;;;;;;;;;4982337;28;20626;-65
2022/11/30 06:36:26;;;;;;;26.67;16.83;;;;;;;;;;4983457;28;20216;-65
2022/11/30 06:38:51;;;;;;;29.23;17.23;;;;;;;;;;4982107;28;20582;-65
2022/11/30 06:41:17;;;;;;;27.30;16.97;;;;;;;;;;4982788;28;20214;-65
2022/11/30 06:43:42;;;;;;;24.83;16.13;;;;;;;;;;4982750;28;20699;-65
2022/11/30 06:46:07;;;;;;;26.77;17.07;;;;;;;;;;4982836;28;20228;-65
2022/11/30 06:48:33;;;;;;;27.67;16.17;;;;;;;;;;4973396;28;20240;-66
2022/11/30 06:50:59;;;;;;;27.95;17.25;;;;;;;;;;4964242;28;20277;-65
2022/11/30 06:53:24;;;;;;;25.55;16.45;;;;;;;;;;4955648;28;20222;-67
2022/11/30 06:55:50;;;;;;;27.07;16.60;;;;;;;;;;4962624;28;20679;-65
2022/11/30 06:58:15;;;;;;;26.60;17.73;;;;;;;;;;4963509;28;20276;-65
2022/11/30 07:00:41;;;;;;;29.20;17.83;;;;;;;;;;4962937;28;20230;-65
2022/11/30 07:03:06;;;;;;;32.10;17.60;;;;;;;;;;4970230;28;20220;-65
2022/11/30 07:05:33;;;;;;;32.58;17.23;;;;;;;;;;4963849;28;20226;-65
2022/11/30 07:07:58;;;;;;;30.35;17.08;;;;;;;;;;4962571;28;20664;-65
2022/11/30 07:10:24;;;;;;;24.40;15.97;;;;;;;;;;4958815;28;20564;-65
2022/11/30 07:12:49;;;;;;;25.40;16.37;;;;;;;;;;4965137;28;20210;-65
2022/11/30 07:15:14;;;;;;;26.77;17.03;;;;;;;;;;4985316;28;20208;-66
2022/11/30 07:17:39;;;;;;;29.60;18.47;;;;;;;;;;4991814;28;20694;-65
2022/11/30 07:20:05;;;;;;;29.50;20.30;;;;;;;;;;4990165;28;20436;-65
2022/11/30 07:22:30;;;;;;;34.50;20.60;;;;;;;;;;4991108;28;20632;-64
2022/11/30 07:27:39;;;;;;;32.27;23.13;;;;;;;;;;4992019;28;20442;-65
2022/11/30 07:30:05;;;;;;;32.20;20.20;;;;;;;;;;4980629;28;20218;-65
2022/11/30 07:32:30;;;;;;;34.50;21.20;;;;;;;;;;4980357;28;20221;-65
2022/11/30 07:34:56;;;;;;;31.93;19.07;;;;;;;;;;4980512;28;20300;-65
2022/11/30 07:37:21;;;;;;;31.47;16.73;;;;;;;;;;4980541;28;20220;-65
2022/11/30 07:39:46;;;;;;;26.77;16.80;;;;;;;;;;4981435;28;20218;-66
2022/11/30 07:42:12;;;;;;;27.53;17.40;;;;;;;;;;4979071;28;20217;-65
2022/11/30 07:44:37;;;;;;;28.60;17.33;;;;;;;;;;4981556;28;20216;-66
2022/11/30 07:47:02;;;;;;;22.97;15.07;;;;;;;;;;4982369;28;20620;-63
2022/11/30 07:49:27;;;;;;;29.17;15.77;;;;;;;;;;4990600;28;20213;-64
2022/11/30 07:51:53;;;;;;;24.13;14.93;;;;;;;;;;4983122;28;20209;-65
2022/11/30 07:54:18;;;;;;;27.53;15.03;;;;;;;;;;4980969;28;20201;-64
2022/11/30 07:56:43;;;;;;;25.50;15.50;;;;;;;;;;4975770;28;20210;-66
2022/11/30 07:59:08;;;;;;;27.37;16.10;;;;;;;;;;4992380;28;20221;-65
2022/11/30 08:01:34;;;;;;;23.60;15.87;;;;;;;;;;5003680;28;20224;-66
2022/11/30 08:04:00;;;;;;;25.40;15.70;;;;;;;;;;4991955;28;20213;-66
2022/11/30 08:06:26;;;;;;;27.90;16.07;;;;;;;;;;4994715;28;20746;-66
2022/11/30 08:08:52;;;;;;;27.87;16.37;;;;;;;;;;5006045;28;20204;-66
2022/11/30 08:11:18;;;;;;;28.37;16.73;;;;;;;;;;5009087;28;20212;-66
2022/11/30 08:13:43;;;;;;;27.83;16.77;;;;;;;;;;5000682;28;20217;-66
2022/11/30 08:16:11;;;;;;;27.23;17.33;;;;;;;;;;5000871;28;20219;-66
2022/11/30 08:18:36;;;;;;;33.17;19.80;;;;;;;;;;5009056;28;20302;-67
2022/11/30 08:21:02;;;;;;;29.67;20.00;;;;;;;;;;4997712;28;20205;-66
2022/11/30 08:23:28;;;;;;;32.95;21.25;;;;;;;;;;5010113;28;20212;-65
2022/11/30 08:25:53;;;;;;;36.70;21.00;;;;;;;;;;4989855;28;20227;-66
2022/11/30 08:28:19;;;;;;;32.70;21.17;;;;;;;;;;5009222;28;20765;-66
2022/11/30 08:30:44;;;;;;;39.77;23.77;;;;;;;;;;5010431;28;20307;-63
2022/11/30 08:33:09;;;;;;;62.20;46.40;;;;;;;;;;5007555;28;20427;-64
2022/11/30 08:35:35;;;;;;;37.05;26.15;;;;;;;;;;5008689;28;20240;-64
2022/11/30 08:38:00;;;;;;;38.63;25.52;;;;;;;;;;5009896;28;20223;-65
2022/11/30 08:40:26;;;;;;;45.43;27.63;;;;;;;;;;5009487;28;20627;-62
2022/11/30 08:42:51;;;;;;;43.20;27.63;;;;;;;;;;5010016;28;20220;-63
2022/11/30 08:45:16;;;;;;;39.97;29.03;;;;;;;;;;5008644;28;20427;-64
2022/11/30 08:47:42;;;;;;;39.33;24.92;;;;;;;;;;5009603;28;20622;-65
2022/11/30 08:50:07;;;;;;;42.85;24.80;;;;;;;;;;5009556;28;20239;-65
2022/11/30 08:52:32;;;;;;;40.90;23.80;;;;;;;;;;5009467;28;20270;-64
2022/11/30 08:54:58;;;;;;;44.70;25.33;;;;;;;;;;5010020;28;20218;-64
2022/11/30 08:57:23;;;;;;;36.50;23.38;;;;;;;;;;4998778;28;20213;-64
2022/11/30 08:59:48;;;;;;;42.47;25.30;;;;;;;;;;4989778;28;20240;-64
2022/11/30 09:02:17;;;;;;;40.22;24.98;;;;;;;;;;4992459;28;20229;-64
2022/11/30 09:04:42;;;;;;;42.70;25.35;;;;;;;;;;4990792;28;20216;-64
2022/11/30 09:07:08;;;;;;;42.53;25.30;;;;;;;;;;4992243;28;20229;-65
2022/11/30 09:09:33;;;;;;;39.10;23.75;;;;;;;;;;4993984;28;20223;-64
2022/11/30 09:11:59;;;;;;;40.88;23.13;;;;;;;;;;4993810;28;20227;-64
2022/11/30 09:14:24;;;;;;;43.80;24.77;;;;;;;;;;4992891;28;20287;-64
2022/11/30 09:16:49;;;;;;;41.13;24.38;;;;;;;;;;5010352;28;20213;-64
2022/11/30 09:19:14;;;;;;;44.97;25.63;;;;;;;;;;5011336;28;20244;-64
2022/11/30 09:21:40;;;;;;;44.22;25.95;;;;;;;;;;4997648;28;20582;-64
2022/11/30 09:24:06;;;;;;;38.83;23.27;;;;;;;;;;4988468;28;20300;-64
2022/11/30 09:26:31;;;;;;;38.78;23.60;;;;;;;;;;5013132;28;20224;-64
2022/11/30 09:28:57;;;;;;;34.57;21.43;;;;;;;;;;5008048;28;20636;-65
2022/11/30 09:31:23;;;;;;;34.53;20.75;;;;;;;;;;5001301;28;20308;-64
2022/11/30 09:33:48;;;;;;;35.22;20.58;;;;;;;;;;4993163;28;20656;-64
2022/11/30 09:36:15;;;;;;;39.17;24.83;;;;;;;;;;4991847;28;20704;-64
2022/11/30 09:38:41;;;;;;;32.95;20.75;;;;;;;;;;4993204;28;20209;-64
2022/11/30 09:41:19;;;;;;;29.73;20.45;;;;;;;;;;4992512;28;20237;-65
2022/11/30 09:43:50;;;;;;;27.45;18.67;;;;;;;;;;4990673;28;20213;-65
2022/11/30 09:46:15;;;;;;;28.40;18.23;;;;;;;;;;4990928;28;20252;-64
2022/11/30 09:48:53;;;;;;;30.80;21.27;;;;;;;;;;4992361;28;20232;-64
2022/11/30 09:51:21;;;;;;;31.30;21.50;;;;;;;;;;4991064;28;20216;-64
2022/11/30 09:53:50;;;;;;;36.08;23.67;;;;;;;;;;4992523;28;20217;-64
2022/11/30 09:56:24;;;;;;;30.05;20.02;;;;;;;;;;4987662;28;20295;-65
2022/11/30 09:58:53;;;;;;;27.73;18.20;;;;;;;;;;4978182;28;20503;-65
2022/11/30 10:01:19;;;;;;;26.88;18.73;;;;;;;;;;4977519;28;20225;-64
2022/11/30 10:03:44;;;;;;;25.48;16.98;;;;;;;;;;4980065;28;20213;-64
2022/11/30 10:06:10;;;;;;;25.88;16.63;;;;;;;;;;4983209;28;20531;-65
2022/11/30 10:08:42;;;;;;;25.70;16.50;;;;;;;;;;4967929;28;20249;-64
2022/11/30 10:11:21;;;;;;;25.73;16.20;;;;;;;;;;4983997;28;20220;-65
2022/11/30 10:13:47;;;;;;;26.52;17.48;;;;;;;;;;4976453;28;20774;-65
2022/11/30 10:16:20;;;;;;;24.90;15.90;;;;;;;;;;4967273;28;20222;-64
2022/11/30 10:18:53;;;;;;;27.20;17.08;;;;;;;;;;4980931;28;20699;-65
2022/11/30 10:21:19;;;;;;;24.08;15.85;;;;;;;;;;4963416;28;20223;-65
2022/11/30 10:23:52;;;;;;;25.10;16.65;;;;;;;;;;4959869;28;20272;-65
2022/11/30 10:26:20;;;;;;;23.23;15.63;;;;;;;;;;4961048;28;20224;-65
2022/11/30 10:28:49;;;;;;;26.38;16.92;;;;;;;;;;4970889;28;20221;-64
2022/11/30 10:31:14;;;;;;;22.42;15.18;;;;;;;;;;4983024;28;20213;-65
2022/11/30 10:33:42;;;;;;;23.05;15.52;;;;;;;;;;4970963;28;20210;-64
2022/11/30 10:36:15;;;;;;;23.02;15.32;;;;;;;;;;4977166;28;20217;-64
2022/11/30 10:38:43;;;;;;;21.73;14.57;;;;;;;;;;4967487;28;20226;-63
2022/11/30 10:41:10;;;;;;;21.75;14.85;;;;;;;;;;4967130;28;20233;-64
2022/11/30 10:43:37;;;;;;;24.52;15.27;;;;;;;;;;4961396;28;20596;-63
2022/11/30 10:46:02;;;;;;;22.67;14.82;;;;;;;;;;4964970;28;20206;-63
2022/11/30 10:48:29;;;;;;;21.10;14.27;;;;;;;;;;4961076;28;20613;-64
2022/11/30 10:50:54;;;;;;;18.38;13.20;;;;;;;;;;4963263;28;20233;-64
2022/11/30 10:53:19;;;;;;;17.02;12.40;;;;;;;;;;4979176;28;20224;-65
2022/11/30 10:55:55;;;;;;;19.70;13.25;;;;;;;;;;4968559;28;20206;-65
2022/11/30 10:58:22;;;;;;;18.98;13.18;;;;;;;;;;4966842;28;20288;-65
2022/11/30 11:00:50;;;;;;;20.70;13.45;;;;;;;;;;4966997;28;20290;-66
2022/11/30 11:03:22;;;;;;;19.08;13.02;;;;;;;;;;4970295;28;20214;-66
2022/11/30 11:05:47;;;;;;;21.08;13.52;;;;;;;;;;4984258;28;20228;-66
2022/11/30 11:08:23;;;;;;;18.90;12.65;;;;;;;;;;4975557;28;20221;-65
2022/11/30 11:10:50;;;;;;;19.67;13.10;;;;;;;;;;4973141;28;20237;-66
2022/11/30 11:13:16;;;;;;;20.20;12.70;;;;;;;;;;4960811;28;20224;-66
2022/11/30 11:15:41;;;;;;;19.60;13.68;;;;;;;;;;4967497;28;20253;-66
2022/11/30 11:18:19;;;;;;;16.63;11.80;;;;;;;;;;4981962;28;20209;-66
2022/11/30 11:20:44;;;;;;;20.85;13.10;;;;;;;;;;4965643;28;20224;-65
2022/11/30 11:23:20;;;;;;;20.45;13.23;;;;;;;;;;4966249;28;20209;-66
2022/11/30 11:25:48;;;;;;;20.67;13.75;;;;;;;;;;4967323;28;20275;-65
2022/11/30 11:28:14;;;;;;;17.70;12.20;;;;;;;;;;4964494;28;20226;-65
2022/11/30 11:30:39;;;;;;;16.58;11.80;;;;;;;;;;4957952;28;20225;-65
2022/11/30 11:33:10;;;;;;;17.25;11.43;;;;;;;;;;4958584;28;20217;-66
2022/11/30 11:35:36;;;;;;;16.30;11.18;;;;;;;;;;4961452;28;20839;-66
2022/11/30 11:38:02;;;;;;;16.00;11.15;;;;;;;;;;4967348;28;20214;-65
2022/11/30 11:40:28;;;;;;;18.77;12.93;;;;;;;;;;4967322;28;20624;-65
2022/11/30 11:42:53;;;;;;;18.58;13.10;;;;;;;;;;4965833;28;20702;-66
2022/11/30 11:45:19;;;;;;;19.40;12.88;;;;;;;;;;4966132;28;20209;-65
2022/11/30 11:47:45;;;;;;;19.05;12.43;;;;;;;;;;4965988;28;20581;-64
2022/11/30 11:50:17;;;;;;;21.00;13.85;;;;;;;;;;4966044;28;20213;-65
2022/11/30 11:52:42;;;;;;;20.85;14.40;;;;;;;;;;4959282;28;20340;-65
2022/11/30 11:55:11;;;;;;;18.15;12.93;;;;;;;;;;4958286;28;20222;-65
2022/11/30 11:57:39;;;;;;;19.52;13.80;;;;;;;;;;4964798;28;20221;-65
2022/11/30 12:00:05;;;;;;;22.52;14.95;;;;;;;;;;4969684;28;20228;-65
2022/11/30 12:02:38;;;;;;;21.17;14.68;;;;;;;;;;4984260;28;20220;-65
2022/11/30 12:05:20;;;;;;;21.50;14.88;;;;;;;;;;4983335;28;20221;-65
2022/11/30 12:07:49;;;;;;;21.77;14.02;;;;;;;;;;4979955;28;20272;-64
2022/11/30 12:10:25;;;;;;;23.40;14.38;;;;;;;;;;4966397;28;20217;-65
2022/11/30 12:12:50;;;;;;;20.40;13.70;;;;;;;;;;4968250;28;20213;-64
2022/11/30 12:15:15;;;;;;;21.67;13.55;;;;;;;;;;4971987;28;20210;-65
2022/11/30 12:17:55;;;;;;;20.67;13.80;;;;;;;;;;4958342;28;20256;-65
2022/11/30 12:20:27;;;;;;;21.73;14.32;;;;;;;;;;4959717;28;20213;-65
2022/11/30 12:23:00;;;;;;;22.95;14.70;;;;;;;;;;4982058;28;20241;-65
2022/11/30 12:25:26;;;;;;;17.85;13.20;;;;;;;;;;4979557;28;20244;-65
2022/11/30 12:28:10;;;;;;;23.50;14.63;;;;;;;;;;4982616;28;20252;-65
2022/11/30 12:30:35;;;;;;;19.98;12.43;;;;;;;;;;4982247;28;20217;-65
2022/11/30 12:33:09;;;;;;;21.02;12.90;;;;;;;;;;4965162;28;20280;-65
2022/11/30 12:35:43;;;;;;;19.55;12.63;;;;;;;;;;4982942;28;20224;-65
2022/11/30 12:38:12;;;;;;;18.70;12.40;;;;;;;;;;4972972;28;20217;-65
2022/11/30 12:40:39;;;;;;;18.25;12.25;;;;;;;;;;4959716;28;20234;-65
2022/11/30 12:43:08;;;;;;;19.83;12.55;;;;;;;;;;4963387;28;20407;-65
2022/11/30 12:45:34;;;;;;;18.45;12.38;;;;;;;;;;4985390;28;20220;-64
2022/11/30 12:48:01;;;;;;;19.20;13.00;;;;;;;;;;4984218;28;20235;-64
2022/11/30 12:50:31;;;;;;;22.45;14.23;;;;;;;;;;4988265;28;20212;-64
2022/11/30 12:53:14;;;;;;;18.52;12.63;;;;;;;;;;5007667;28;20366;-64
2022/11/30 12:55:52;;;;;;;21.75;13.35;;;;;;;;;;4988499;28;20274;-64
2022/11/30 12:58:21;;;;;;;21.98;12.93;;;;;;;;;;4985433;28;20274;-64
2022/11/30 13:00:54;;;;;;;21.48;14.02;;;;;;;;;;4962006;28;20248;-64
2022/11/30 13:03:25;;;;;;;22.88;14.13;;;;;;;;;;4979875;28;20283;-64
2022/11/30 13:05:53;;;;;;;21.25;13.45;;;;;;;;;;4962538;28;20221;-64
2022/11/30 13:08:25;;;;;;;23.13;14.55;;;;;;;;;;4985568;28;20225;-64
2022/11/30 13:10:52;;;;;;;22.17;14.15;;;;;;;;;;4988079;28;20218;-64
2022/11/30 13:13:18;;;;;;;23.88;15.57;;;;;;;;;;4986129;28;20813;-64
2022/11/30 13:15:44;;;;;;;23.92;13.88;;;;;;;;;;4983523;28;20221;-64
2022/11/30 13:18:13;;;;;;;23.38;15.43;;;;;;;;;;4986060;28;20217;-64
2022/11/30 13:20:40;;;;;;;23.15;14.85;;;;;;;;;;4986320;28;20272;-64
2022/11/30 13:23:08;;;;;;;23.55;15.32;;;;;;;;;;4980872;28;20225;-65
2022/11/30 13:25:40;;;;;;;21.02;14.35;;;;;;;;;;4975998;28;20214;-64
2022/11/30 13:28:11;;;;;;;22.40;14.43;;;;;;;;;;4978611;28;20228;-64
2022/11/30 13:30:41;;;;;;;22.25;13.98;;;;;;;;;;4981751;28;20217;-64
2022/11/30 13:33:35;;;;;;;20.13;13.60;;;;;;;;;;4985577;28;20649;-65
2022/11/30 13:36:19;;;;;;;21.00;13.95;;;;;;;;;;4987116;28;20302;-65
2022/11/30 13:38:44;;;;;;;22.38;14.25;;;;;;;;;;4987877;28;20275;-64
2022/11/30 13:41:10;;;;;;;21.70;14.45;;;;;;;;;;4986861;28;20581;-65
2022/11/30 13:43:39;;;;;;;22.95;15.07;;;;;;;;;;4987275;28;20249;-64
2022/11/30 13:46:05;;;;;;;21.08;14.10;;;;;;;;;;4991796;28;20228;-64
2022/11/30 13:48:32;;;;;;;22.00;14.23;;;;;;;;;;4991388;28;20312;-64
2022/11/30 13:50:57;;;;;;;19.30;13.30;;;;;;;;;;4993609;28;20258;-64
2022/11/30 13:53:24;;;;;;;24.33;15.20;;;;;;;;;;4992107;28;20237;-64
2022/11/30 13:55:51;;;;;;;23.55;14.75;;;;;;;;;;4992985;28;20213;-64
2022/11/30 13:58:17;;;;;;;22.52;14.48;;;;;;;;;;4984943;28;20300;-64
2022/11/30 14:00:43;;;;;;;24.33;14.88;;;;;;;;;;5003843;28;20321;-64
2022/11/30 14:03:12;;;;;;;24.35;14.80;;;;;;;;;;4992053;28;20582;-64
2022/11/30 14:05:38;;;;;;;22.20;14.52;;;;;;;;;;4993293;28;20209;-64
2022/11/30 14:08:04;;;;;;;23.20;15.63;;;;;;;;;;4994118;28;20245;-64
2022/11/30 14:10:33;;;;;;;24.73;16.00;;;;;;;;;;4992565;28;20208;-64
2022/11/30 14:13:00;;;;;;;26.88;17.08;;;;;;;;;;4992943;28;20205;-64
2022/11/30 14:15:30;;;;;;;23.73;15.70;;;;;;;;;;5012430;28;20278;-65
2022/11/30 14:17:55;;;;;;;21.90;14.77;;;;;;;;;;5012017;28;20218;-64